Aliquippa, Pennsylvania
Current Conditions -  °F | °C
As of 2:51 AM on Monday 22 Dec 2014 (Local Time) from KPIT Reporting Station
Scattered Clouds Scattered Clouds  
Wind Chill: 17°   Ceiling: Unl
Heat Index: 24°   Visibility: 8mi
Dew Point: 21°   Wind: 6mph
Humidity: 88%   Direction: 90°E
Pressure: 30.13"   Gusts: NA
Location:  40.62°N, 80.24°W
Report Text: KPIT 220751Z 09005KT 8SM SCT250 M04/M06 A3013 RMK AO2 SLP225 T10441061
Loading
Personal Weather Stations






























Interactive Weather Map New forecast layout! Learn more

10-Day Weather Forecast

Advertisements
Track Severe Weather on mobile